sensor_id;sensor_type;location;lat;lon;timestamp;P1;durP1;ratioP1;P2;durP2;ratioP2
67902;SDS011;54708;43.612;1.568;2023-08-20T00:01:30;11.10;;;6.00;;
67902;SDS011;54708;43.612;1.568;2023-08-20T00:03:56;14.50;;;7.10;;
67902;SDS011;54708;43.612;1.568;2023-08-20T00:06:22;10.75;;;6.88;;
67902;SDS011;54708;43.612;1.568;2023-08-20T00:08:48;12.77;;;5.93;;
67902;SDS011;54708;43.612;1.568;2023-08-20T00:11:14;13.95;;;6.70;;
67902;SDS011;54708;43.612;1.568;2023-08-20T00:13:40;11.35;;;6.80;;
67902;SDS011;54708;43.612;1.568;2023-08-20T00:16:06;13.63;;;6.63;;
67902;SDS011;54708;43.612;1.568;2023-08-20T00:18:32;14.48;;;5.97;;
67902;SDS011;54708;43.612;1.568;2023-08-20T00:20:57;13.88;;;6.47;;
67902;SDS011;54708;43.612;1.568;2023-08-20T00:23:24;13.60;;;6.63;;
67902;SDS011;54708;43.612;1.568;2023-08-20T00:25:51;17.08;;;7.70;;
67902;SDS011;54708;43.612;1.568;2023-08-20T00:28:16;9.30;;;6.88;;
67902;SDS011;54708;43.612;1.568;2023-08-20T00:30:42;10.90;;;6.38;;
67902;SDS011;54708;43.612;1.568;2023-08-20T00:33:07;11.18;;;6.72;;
67902;SDS011;54708;43.612;1.568;2023-08-20T00:35:32;9.30;;;6.20;;
67902;SDS011;54708;43.612;1.568;2023-08-20T00:37:58;7.32;;;5.72;;
67902;SDS011;54708;43.612;1.568;2023-08-20T00:40:23;8.90;;;6.43;;
67902;SDS011;54708;43.612;1.568;2023-08-20T00:42:49;12.93;;;7.22;;
67902;SDS011;54708;43.612;1.568;2023-08-20T00:45:14;11.05;;;6.75;;
67902;SDS011;54708;43.612;1.568;2023-08-20T00:47:41;8.82;;;6.45;;
67902;SDS011;54708;43.612;1.568;2023-08-20T00:50:07;7.97;;;6.63;;
67902;SDS011;54708;43.612;1.568;2023-08-20T00:52:33;10.77;;;6.93;;
67902;SDS011;54708;43.612;1.568;2023-08-20T00:54:59;14.00;;;7.78;;
67902;SDS011;54708;43.612;1.568;2023-08-20T00:57:26;11.57;;;6.82;;
67902;SDS011;54708;43.612;1.568;2023-08-20T00:59:51;11.88;;;6.68;;
67902;SDS011;54708;43.612;1.568;2023-08-20T01:02:19;10.80;;;6.55;;
67902;SDS011;54708;43.612;1.568;2023-08-20T01:04:45;11.05;;;7.03;;
67902;SDS011;54708;43.612;1.568;2023-08-20T01:07:31;8.38;;;6.47;;
67902;SDS011;54708;43.612;1.568;2023-08-20T01:10:32;16.63;;;6.75;;
67902;SDS011;54708;43.612;1.568;2023-08-20T01:13:03;12.48;;;6.82;;
67902;SDS011;54708;43.612;1.568;2023-08-20T01:15:29;13.48;;;6.53;;
67902;SDS011;54708;43.612;1.568;2023-08-20T01:17:55;13.88;;;6.68;;
67902;SDS011;54708;43.612;1.568;2023-08-20T01:20:20;17.35;;;7.18;;
67902;SDS011;54708;43.612;1.568;2023-08-20T01:22:52;14.73;;;6.78;;
67902;SDS011;54708;43.612;1.568;2023-08-20T01:28:31;12.13;;;7.50;;
67902;SDS011;54708;43.612;1.568;2023-08-20T01:30:58;9.90;;;7.55;;
67902;SDS011;54708;43.612;1.568;2023-08-20T01:33:24;10.57;;;7.22;;
67902;SDS011;54708;43.612;1.568;2023-08-20T01:35:51;8.65;;;6.85;;
67902;SDS011;54708;43.612;1.568;2023-08-20T01:38:16;8.90;;;7.50;;
67902;SDS011;54708;43.612;1.568;2023-08-20T01:40:42;8.73;;;6.95;;
67902;SDS011;54708;43.612;1.568;2023-08-20T01:43:07;14.13;;;6.88;;
67902;SDS011;54708;43.612;1.568;2023-08-20T01:45:33;14.75;;;7.28;;
67902;SDS011;54708;43.612;1.568;2023-08-20T01:47:58;9.68;;;7.47;;
67902;SDS011;54708;43.612;1.568;2023-08-20T01:50:24;12.60;;;8.25;;
67902;SDS011;54708;43.612;1.568;2023-08-20T01:52:49;15.57;;;7.40;;
67902;SDS011;54708;43.612;1.568;2023-08-20T01:55:15;13.95;;;7.80;;
67902;SDS011;54708;43.612;1.568;2023-08-20T01:57:40;12.20;;;7.53;;
67902;SDS011;54708;43.612;1.568;2023-08-20T02:00:05;12.43;;;7.38;;
67902;SDS011;54708;43.612;1.568;2023-08-20T02:02:32;11.95;;;8.02;;
67902;SDS011;54708;43.612;1.568;2023-08-20T02:04:57;11.50;;;7.85;;
67902;SDS011;54708;43.612;1.568;2023-08-20T02:07:23;19.33;;;8.57;;
67902;SDS011;54708;43.612;1.568;2023-08-20T02:09:48;13.57;;;8.45;;
67902;SDS011;54708;43.612;1.568;2023-08-20T02:12:14;11.55;;;8.10;;
67902;SDS011;54708;43.612;1.568;2023-08-20T02:14:39;13.82;;;8.30;;
67902;SDS011;54708;43.612;1.568;2023-08-20T02:17:05;10.13;;;7.63;;
67902;SDS011;54708;43.612;1.568;2023-08-20T02:19:31;14.45;;;7.18;;
67902;SDS011;54708;43.612;1.568;2023-08-20T02:21:57;11.77;;;7.57;;
67902;SDS011;54708;43.612;1.568;2023-08-20T02:24:22;13.07;;;9.60;;
67902;SDS011;54708;43.612;1.568;2023-08-20T02:26:47;13.98;;;9.52;;
67902;SDS011;54708;43.612;1.568;2023-08-20T02:29:13;17.00;;;8.80;;
67902;SDS011;54708;43.612;1.568;2023-08-20T02:31:38;15.27;;;8.38;;
67902;SDS011;54708;43.612;1.568;2023-08-20T02:34:04;16.55;;;9.13;;
67902;SDS011;54708;43.612;1.568;2023-08-20T02:36:29;13.43;;;8.60;;
67902;SDS011;54708;43.612;1.568;2023-08-20T02:38:55;15.95;;;8.65;;
67902;SDS011;54708;43.612;1.568;2023-08-20T02:41:20;16.77;;;8.65;;
67902;SDS011;54708;43.612;1.568;2023-08-20T02:43:45;15.50;;;8.35;;
67902;SDS011;54708;43.612;1.568;2023-08-20T02:46:11;13.00;;;8.60;;
67902;SDS011;54708;43.612;1.568;2023-08-20T02:48:37;14.45;;;9.18;;
67902;SDS011;54708;43.612;1.568;2023-08-20T02:51:02;12.32;;;7.70;;
67902;SDS011;54708;43.612;1.568;2023-08-20T02:53:27;11.55;;;8.13;;
67902;SDS011;54708;43.612;1.568;2023-08-20T02:55:53;15.77;;;7.90;;
67902;SDS011;54708;43.612;1.568;2023-08-20T02:58:19;11.32;;;8.85;;
67902;SDS011;54708;43.612;1.568;2023-08-20T03:00:44;11.23;;;8.18;;
67902;SDS011;54708;43.612;1.568;2023-08-20T03:03:10;13.65;;;8.65;;
67902;SDS011;54708;43.612;1.568;2023-08-20T03:05:36;13.10;;;9.15;;
67902;SDS011;54708;43.612;1.568;2023-08-20T03:08:01;16.75;;;7.93;;
67902;SDS011;54708;43.612;1.568;2023-08-20T03:10:29;9.18;;;7.78;;
67902;SDS011;54708;43.612;1.568;2023-08-20T03:12:54;11.82;;;7.47;;
67902;SDS011;54708;43.612;1.568;2023-08-20T03:15:20;13.57;;;8.55;;
67902;SDS011;54708;43.612;1.568;2023-08-20T03:17:45;14.13;;;8.35;;
67902;SDS011;54708;43.612;1.568;2023-08-20T03:20:11;17.25;;;9.90;;
67902;SDS011;54708;43.612;1.568;2023-08-20T03:22:36;10.07;;;8.15;;
67902;SDS011;54708;43.612;1.568;2023-08-20T03:25:02;11.25;;;8.02;;
67902;SDS011;54708;43.612;1.568;2023-08-20T03:27:28;10.45;;;7.78;;
67902;SDS011;54708;43.612;1.568;2023-08-20T03:29:53;12.63;;;8.13;;
67902;SDS011;54708;43.612;1.568;2023-08-20T03:32:19;11.52;;;8.25;;
67902;SDS011;54708;43.612;1.568;2023-08-20T03:34:44;12.20;;;8.13;;
67902;SDS011;54708;43.612;1.568;2023-08-20T03:37:10;13.20;;;8.35;;
67902;SDS011;54708;43.612;1.568;2023-08-20T03:39:35;12.60;;;7.57;;
67902;SDS011;54708;43.612;1.568;2023-08-20T03:42:00;12.60;;;8.00;;
67902;SDS011;54708;43.612;1.568;2023-08-20T03:44:26;11.15;;;8.65;;
67902;SDS011;54708;43.612;1.568;2023-08-20T03:46:51;15.20;;;8.52;;
67902;SDS011;54708;43.612;1.568;2023-08-20T03:49:17;9.15;;;8.25;;
67902;SDS011;54708;43.612;1.568;2023-08-20T03:51:42;11.05;;;8.63;;
67902;SDS011;54708;43.612;1.568;2023-08-20T03:54:08;12.80;;;8.60;;
67902;SDS011;54708;43.612;1.568;2023-08-20T03:56:34;16.80;;;8.90;;
67902;SDS011;54708;43.612;1.568;2023-08-20T03:58:59;16.02;;;8.50;;
67902;SDS011;54708;43.612;1.568;2023-08-20T04:01:25;9.48;;;6.68;;
67902;SDS011;54708;43.612;1.568;2023-08-20T04:03:50;10.57;;;8.27;;
67902;SDS011;54708;43.612;1.568;2023-08-20T04:06:15;11.88;;;8.07;;
67902;SDS011;54708;43.612;1.568;2023-08-20T04:08:41;19.52;;;8.93;;
67902;SDS011;54708;43.612;1.568;2023-08-20T04:11:06;9.50;;;8.10;;
67902;SDS011;54708;43.612;1.568;2023-08-20T04:13:32;13.60;;;8.95;;
67902;SDS011;54708;43.612;1.568;2023-08-20T04:15:57;14.25;;;9.13;;
67902;SDS011;54708;43.612;1.568;2023-08-20T04:18:23;20.65;;;9.23;;
67902;SDS011;54708;43.612;1.568;2023-08-20T04:20:50;13.27;;;8.55;;
67902;SDS011;54708;43.612;1.568;2023-08-20T04:23:16;17.42;;;9.38;;
67902;SDS011;54708;43.612;1.568;2023-08-20T04:25:42;12.35;;;9.30;;
67902;SDS011;54708;43.612;1.568;2023-08-20T04:28:07;17.10;;;9.93;;
67902;SDS011;54708;43.612;1.568;2023-08-20T04:30:34;13.68;;;8.95;;
67902;SDS011;54708;43.612;1.568;2023-08-20T04:33:00;14.75;;;9.60;;
67902;SDS011;54708;43.612;1.568;2023-08-20T04:35:25;12.93;;;9.75;;
67902;SDS011;54708;43.612;1.568;2023-08-20T04:37:51;13.80;;;8.20;;
67902;SDS011;54708;43.612;1.568;2023-08-20T04:40:16;16.00;;;9.90;;
67902;SDS011;54708;43.612;1.568;2023-08-20T04:42:41;18.38;;;9.02;;
67902;SDS011;54708;43.612;1.568;2023-08-20T04:45:07;18.30;;;10.25;;
67902;SDS011;54708;43.612;1.568;2023-08-20T04:47:33;20.92;;;10.65;;
67902;SDS011;54708;43.612;1.568;2023-08-20T04:49:58;13.88;;;9.20;;
67902;SDS011;54708;43.612;1.568;2023-08-20T04:52:24;18.30;;;10.75;;
67902;SDS011;54708;43.612;1.568;2023-08-20T04:54:49;15.07;;;10.20;;
67902;SDS011;54708;43.612;1.568;2023-08-20T04:57:14;17.10;;;10.65;;
67902;SDS011;54708;43.612;1.568;2023-08-20T04:59:41;15.68;;;10.43;;
67902;SDS011;54708;43.612;1.568;2023-08-20T05:02:10;12.63;;;11.05;;
67902;SDS011;54708;43.612;1.568;2023-08-20T05:04:36;11.57;;;10.10;;
67902;SDS011;54708;43.612;1.568;2023-08-20T05:07:01;13.00;;;9.38;;
67902;SDS011;54708;43.612;1.568;2023-08-20T05:09:28;10.65;;;9.45;;
67902;SDS011;54708;43.612;1.568;2023-08-20T05:11:53;13.40;;;9.95;;
67902;SDS011;54708;43.612;1.568;2023-08-20T05:14:19;21.05;;;10.82;;
67902;SDS011;54708;43.612;1.568;2023-08-20T05:16:44;13.60;;;10.10;;
67902;SDS011;54708;43.612;1.568;2023-08-20T05:19:09;14.00;;;11.10;;
67902;SDS011;54708;43.612;1.568;2023-08-20T05:21:35;13.23;;;10.25;;
67902;SDS011;54708;43.612;1.568;2023-08-20T05:24:00;17.52;;;10.85;;
67902;SDS011;54708;43.612;1.568;2023-08-20T05:26:25;15.02;;;10.20;;
67902;SDS011;54708;43.612;1.568;2023-08-20T05:28:51;15.13;;;10.85;;
67902;SDS011;54708;43.612;1.568;2023-08-20T05:31:16;19.05;;;10.48;;
67902;SDS011;54708;43.612;1.568;2023-08-20T05:33:41;18.33;;;11.23;;
67902;SDS011;54708;43.612;1.568;2023-08-20T05:36:07;17.42;;;11.90;;
67902;SDS011;54708;43.612;1.568;2023-08-20T05:38:32;15.10;;;9.68;;
67902;SDS011;54708;43.612;1.568;2023-08-20T05:40:57;17.45;;;10.98;;
67902;SDS011;54708;43.612;1.568;2023-08-20T05:43:23;12.82;;;10.93;;
67902;SDS011;54708;43.612;1.568;2023-08-20T05:45:48;15.13;;;9.80;;
67902;SDS011;54708;43.612;1.568;2023-08-20T05:48:14;14.70;;;10.75;;
67902;SDS011;54708;43.612;1.568;2023-08-20T05:50:39;13.65;;;10.48;;
67902;SDS011;54708;43.612;1.568;2023-08-20T05:53:04;15.48;;;10.25;;
67902;SDS011;54708;43.612;1.568;2023-08-20T05:55:30;13.18;;;9.50;;
67902;SDS011;54708;43.612;1.568;2023-08-20T05:57:55;14.32;;;11.80;;
67902;SDS011;54708;43.612;1.568;2023-08-20T06:00:21;14.80;;;10.23;;
67902;SDS011;54708;43.612;1.568;2023-08-20T06:02:47;13.75;;;10.60;;
67902;SDS011;54708;43.612;1.568;2023-08-20T06:05:12;12.65;;;11.05;;
67902;SDS011;54708;43.612;1.568;2023-08-20T06:07:38;17.00;;;11.63;;
67902;SDS011;54708;43.612;1.568;2023-08-20T06:10:04;14.45;;;9.80;;
67902;SDS011;54708;43.612;1.568;2023-08-20T06:12:30;13.77;;;10.23;;
67902;SDS011;54708;43.612;1.568;2023-08-20T06:14:55;15.23;;;10.25;;
67902;SDS011;54708;43.612;1.568;2023-08-20T06:17:21;16.73;;;11.15;;
67902;SDS011;54708;43.612;1.568;2023-08-20T06:19:46;14.43;;;10.35;;
67902;SDS011;54708;43.612;1.568;2023-08-20T06:22:12;14.90;;;9.80;;
67902;SDS011;54708;43.612;1.568;2023-08-20T06:24:37;12.85;;;10.82;;
67902;SDS011;54708;43.612;1.568;2023-08-20T06:27:02;11.48;;;10.23;;
67902;SDS011;54708;43.612;1.568;2023-08-20T06:29:28;14.10;;;10.00;;
67902;SDS011;54708;43.612;1.568;2023-08-20T06:31:54;13.00;;;10.60;;
67902;SDS011;54708;43.612;1.568;2023-08-20T06:34:19;13.90;;;9.85;;
67902;SDS011;54708;43.612;1.568;2023-08-20T06:36:44;16.80;;;11.55;;
67902;SDS011;54708;43.612;1.568;2023-08-20T06:39:10;12.07;;;9.82;;
67902;SDS011;54708;43.612;1.568;2023-08-20T06:41:36;15.63;;;10.40;;
67902;SDS011;54708;43.612;1.568;2023-08-20T06:44:04;15.13;;;10.75;;
67902;SDS011;54708;43.612;1.568;2023-08-20T06:46:29;12.30;;;10.25;;
67902;SDS011;54708;43.612;1.568;2023-08-20T06:48:55;17.08;;;10.32;;
67902;SDS011;54708;43.612;1.568;2023-08-20T06:51:21;15.30;;;10.20;;
67902;SDS011;54708;43.612;1.568;2023-08-20T06:53:47;14.35;;;10.57;;
67902;SDS011;54708;43.612;1.568;2023-08-20T06:56:12;14.25;;;10.15;;
67902;SDS011;54708;43.612;1.568;2023-08-20T06:58:39;11.23;;;10.00;;
67902;SDS011;54708;43.612;1.568;2023-08-20T07:01:05;11.98;;;10.27;;
67902;SDS011;54708;43.612;1.568;2023-08-20T07:03:40;13.07;;;9.13;;
67902;SDS011;54708;43.612;1.568;2023-08-20T07:06:06;16.02;;;11.25;;
67902;SDS011;54708;43.612;1.568;2023-08-20T07:08:32;13.80;;;9.63;;
67902;SDS011;54708;43.612;1.568;2023-08-20T07:10:58;15.35;;;9.55;;
67902;SDS011;54708;43.612;1.568;2023-08-20T07:13:23;17.25;;;10.13;;
67902;SDS011;54708;43.612;1.568;2023-08-20T07:15:49;15.20;;;9.10;;
67902;SDS011;54708;43.612;1.568;2023-08-20T07:18:14;12.93;;;9.70;;
67902;SDS011;54708;43.612;1.568;2023-08-20T07:20:41;13.18;;;10.00;;
67902;SDS011;54708;43.612;1.568;2023-08-20T07:23:07;12.05;;;9.50;;
67902;SDS011;54708;43.612;1.568;2023-08-20T07:25:33;14.35;;;9.77;;
67902;SDS011;54708;43.612;1.568;2023-08-20T07:28:01;14.60;;;8.45;;
67902;SDS011;54708;43.612;1.568;2023-08-20T07:30:27;11.23;;;8.70;;
67902;SDS011;54708;43.612;1.568;2023-08-20T07:32:53;20.08;;;9.40;;
67902;SDS011;54708;43.612;1.568;2023-08-20T07:35:18;18.80;;;8.35;;
67902;SDS011;54708;43.612;1.568;2023-08-20T07:37:44;12.77;;;8.57;;
67902;SDS011;54708;43.612;1.568;2023-08-20T07:40:11;11.88;;;8.35;;
67902;SDS011;54708;43.612;1.568;2023-08-20T07:42:36;10.93;;;7.45;;
67902;SDS011;54708;43.612;1.568;2023-08-20T07:45:02;11.38;;;8.02;;
67902;SDS011;54708;43.612;1.568;2023-08-20T07:47:27;11.38;;;7.38;;
67902;SDS011;54708;43.612;1.568;2023-08-20T07:49:54;8.45;;;7.35;;
67902;SDS011;54708;43.612;1.568;2023-08-20T07:52:19;12.10;;;7.85;;
67902;SDS011;54708;43.612;1.568;2023-08-20T07:54:45;13.68;;;7.50;;
67902;SDS011;54708;43.612;1.568;2023-08-20T07:57:11;11.80;;;7.85;;
67902;SDS011;54708;43.612;1.568;2023-08-20T07:59:37;11.43;;;7.45;;
67902;SDS011;54708;43.612;1.568;2023-08-20T08:02:02;12.52;;;7.93;;
67902;SDS011;54708;43.612;1.568;2023-08-20T08:04:28;14.57;;;7.65;;
67902;SDS011;54708;43.612;1.568;2023-08-20T08:06:53;14.85;;;7.43;;
67902;SDS011;54708;43.612;1.568;2023-08-20T08:09:19;13.77;;;7.40;;
67902;SDS011;54708;43.612;1.568;2023-08-20T08:11:51;17.67;;;7.82;;
67902;SDS011;54708;43.612;1.568;2023-08-20T08:14:17;14.38;;;7.20;;
67902;SDS011;54708;43.612;1.568;2023-08-20T08:16:42;9.55;;;7.55;;
67902;SDS011;54708;43.612;1.568;2023-08-20T08:19:08;14.38;;;6.68;;
67902;SDS011;54708;43.612;1.568;2023-08-20T08:21:33;11.77;;;6.68;;
67902;SDS011;54708;43.612;1.568;2023-08-20T08:23:58;11.98;;;7.07;;
67902;SDS011;54708;43.612;1.568;2023-08-20T08:26:24;17.17;;;6.78;;
67902;SDS011;54708;43.612;1.568;2023-08-20T08:28:49;10.18;;;6.75;;
67902;SDS011;54708;43.612;1.568;2023-08-20T08:31:14;12.77;;;7.45;;
67902;SDS011;54708;43.612;1.568;2023-08-20T08:33:40;15.85;;;7.72;;
67902;SDS011;54708;43.612;1.568;2023-08-20T08:36:05;13.13;;;8.30;;
67902;SDS011;54708;43.612;1.568;2023-08-20T08:38:31;12.30;;;6.90;;
67902;SDS011;54708;43.612;1.568;2023-08-20T08:40:56;12.57;;;7.45;;
67902;SDS011;54708;43.612;1.568;2023-08-20T08:43:22;17.67;;;7.75;;
67902;SDS011;54708;43.612;1.568;2023-08-20T08:45:47;13.35;;;7.68;;
67902;SDS011;54708;43.612;1.568;2023-08-20T08:48:15;15.32;;;6.78;;
67902;SDS011;54708;43.612;1.568;2023-08-20T08:50:42;12.63;;;6.50;;
67902;SDS011;54708;43.612;1.568;2023-08-20T08:53:08;14.18;;;7.50;;
67902;SDS011;54708;43.612;1.568;2023-08-20T08:55:35;16.15;;;7.43;;
67902;SDS011;54708;43.612;1.568;2023-08-20T08:58:00;16.92;;;7.18;;
67902;SDS011;54708;43.612;1.568;2023-08-20T09:00:26;12.13;;;6.57;;
67902;SDS011;54708;43.612;1.568;2023-08-20T09:02:51;10.02;;;5.57;;
67902;SDS011;54708;43.612;1.568;2023-08-20T09:05:17;6.78;;;6.07;;
67902;SDS011;54708;43.612;1.568;2023-08-20T09:07:43;9.57;;;6.43;;
67902;SDS011;54708;43.612;1.568;2023-08-20T09:10:09;8.15;;;6.32;;
67902;SDS011;54708;43.612;1.568;2023-08-20T09:12:34;13.02;;;6.15;;
67902;SDS011;54708;43.612;1.568;2023-08-20T09:15:00;13.38;;;5.78;;
67902;SDS011;54708;43.612;1.568;2023-08-20T09:17:26;16.88;;;6.57;;
67902;SDS011;54708;43.612;1.568;2023-08-20T09:19:53;12.00;;;6.05;;
67902;SDS011;54708;43.612;1.568;2023-08-20T09:22:20;16.08;;;5.97;;
67902;SDS011;54708;43.612;1.568;2023-08-20T09:24:47;10.55;;;6.07;;
67902;SDS011;54708;43.612;1.568;2023-08-20T09:27:16;12.27;;;5.35;;
67902;SDS011;54708;43.612;1.568;2023-08-20T09:29:45;7.63;;;5.05;;
67902;SDS011;54708;43.612;1.568;2023-08-20T09:32:15;9.75;;;5.63;;
67902;SDS011;54708;43.612;1.568;2023-08-20T09:34:42;10.48;;;6.65;;
67902;SDS011;54708;43.612;1.568;2023-08-20T09:37:08;11.43;;;5.70;;
67902;SDS011;54708;43.612;1.568;2023-08-20T09:39:40;15.70;;;6.95;;
67902;SDS011;54708;43.612;1.568;2023-08-20T09:42:06;6.60;;;5.57;;
67902;SDS011;54708;43.612;1.568;2023-08-20T09:44:34;14.00;;;5.55;;
67902;SDS011;54708;43.612;1.568;2023-08-20T09:47:07;15.25;;;5.80;;
67902;SDS011;54708;43.612;1.568;2023-08-20T09:49:36;14.13;;;4.97;;
67902;SDS011;54708;43.612;1.568;2023-08-20T09:52:05;13.07;;;5.82;;
67902;SDS011;54708;43.612;1.568;2023-08-20T09:57:24;14.52;;;6.15;;
67902;SDS011;54708;43.612;1.568;2023-08-20T09:59:52;9.57;;;5.75;;
67902;SDS011;54708;43.612;1.568;2023-08-20T10:02:18;9.27;;;5.72;;
67902;SDS011;54708;43.612;1.568;2023-08-20T10:04:44;13.98;;;5.47;;
67902;SDS011;54708;43.612;1.568;2023-08-20T10:07:10;10.75;;;5.40;;
67902;SDS011;54708;43.612;1.568;2023-08-20T10:09:37;13.20;;;5.97;;
67902;SDS011;54708;43.612;1.568;2023-08-20T10:12:04;12.82;;;5.70;;
67902;SDS011;54708;43.612;1.568;2023-08-20T10:14:30;8.00;;;4.90;;
67902;SDS011;54708;43.612;1.568;2023-08-20T10:16:55;15.02;;;4.97;;
67902;SDS011;54708;43.612;1.568;2023-08-20T10:19:21;13.43;;;5.15;;
67902;SDS011;54708;43.612;1.568;2023-08-20T10:21:48;14.90;;;5.68;;
67902;SDS011;54708;43.612;1.568;2023-08-20T10:24:17;9.55;;;4.90;;
67902;SDS011;54708;43.612;1.568;2023-08-20T10:26:46;13.18;;;5.32;;
67902;SDS011;54708;43.612;1.568;2023-08-20T10:32:05;15.65;;;5.47;;
67902;SDS011;54708;43.612;1.568;2023-08-20T10:34:33;9.10;;;4.68;;
67902;SDS011;54708;43.612;1.568;2023-08-20T10:37:02;17.10;;;5.60;;
67902;SDS011;54708;43.612;1.568;2023-08-20T10:39:29;15.05;;;6.38;;
67902;SDS011;54708;43.612;1.568;2023-08-20T10:42:17;11.90;;;5.28;;
67902;SDS011;54708;43.612;1.568;2023-08-20T10:45:00;9.70;;;4.90;;
67902;SDS011;54708;43.612;1.568;2023-08-20T10:50:15;17.08;;;5.85;;
67902;SDS011;54708;43.612;1.568;2023-08-20T10:52:41;8.93;;;5.05;;
67902;SDS011;54708;43.612;1.568;2023-08-20T10:55:12;7.13;;;4.93;;
67902;SDS011;54708;43.612;1.568;2023-08-20T10:57:38;8.18;;;5.35;;
67902;SDS011;54708;43.612;1.568;2023-08-20T11:00:04;9.05;;;4.50;;
67902;SDS011;54708;43.612;1.568;2023-08-20T11:02:40;10.23;;;4.88;;
67902;SDS011;54708;43.612;1.568;2023-08-20T11:05:15;12.93;;;5.32;;
67902;SDS011;54708;43.612;1.568;2023-08-20T11:07:42;6.53;;;4.70;;
67902;SDS011;54708;43.612;1.568;2023-08-20T11:10:08;9.38;;;5.15;;
67902;SDS011;54708;43.612;1.568;2023-08-20T11:12:35;9.32;;;5.10;;
67902;SDS011;54708;43.612;1.568;2023-08-20T11:15:01;14.10;;;5.78;;
67902;SDS011;54708;43.612;1.568;2023-08-20T11:17:27;13.60;;;6.78;;
67902;SDS011;54708;43.612;1.568;2023-08-20T11:19:53;8.88;;;5.75;;
67902;SDS011;54708;43.612;1.568;2023-08-20T11:22:19;13.88;;;5.68;;
67902;SDS011;54708;43.612;1.568;2023-08-20T11:24:44;9.30;;;5.78;;
67902;SDS011;54708;43.612;1.568;2023-08-20T11:27:10;9.85;;;5.25;;
67902;SDS011;54708;43.612;1.568;2023-08-20T11:29:35;15.50;;;5.40;;
67902;SDS011;54708;43.612;1.568;2023-08-20T11:32:01;9.95;;;5.25;;
67902;SDS011;54708;43.612;1.568;2023-08-20T11:34:28;12.90;;;5.07;;
67902;SDS011;54708;43.612;1.568;2023-08-20T11:36:54;11.95;;;4.88;;
67902;SDS011;54708;43.612;1.568;2023-08-20T11:39:19;6.97;;;4.97;;
67902;SDS011;54708;43.612;1.568;2023-08-20T11:41:45;8.35;;;4.90;;
67902;SDS011;54708;43.612;1.568;2023-08-20T11:44:10;6.32;;;4.43;;
67902;SDS011;54708;43.612;1.568;2023-08-20T11:46:43;12.98;;;5.97;;
67902;SDS011;54708;43.612;1.568;2023-08-20T11:49:09;12.73;;;5.13;;
67902;SDS011;54708;43.612;1.568;2023-08-20T11:54:02;12.27;;;4.72;;
67902;SDS011;54708;43.612;1.568;2023-08-20T11:56:30;5.43;;;4.20;;
67902;SDS011;54708;43.612;1.568;2023-08-20T11:58:59;6.55;;;4.45;;
67902;SDS011;54708;43.612;1.568;2023-08-20T12:01:25;9.07;;;4.68;;
67902;SDS011;54708;43.612;1.568;2023-08-20T12:03:50;9.70;;;4.82;;
67902;SDS011;54708;43.612;1.568;2023-08-20T12:06:20;7.93;;;4.95;;
67902;SDS011;54708;43.612;1.568;2023-08-20T12:11:13;7.75;;;4.75;;
67902;SDS011;54708;43.612;1.568;2023-08-20T12:13:38;6.80;;;4.32;;
67902;SDS011;54708;43.612;1.568;2023-08-20T12:16:03;8.63;;;4.18;;
67902;SDS011;54708;43.612;1.568;2023-08-20T12:18:29;10.57;;;4.88;;
67902;SDS011;54708;43.612;1.568;2023-08-20T12:20:55;9.93;;;4.97;;
67902;SDS011;54708;43.612;1.568;2023-08-20T12:23:20;8.77;;;4.80;;
67902;SDS011;54708;43.612;1.568;2023-08-20T12:25:49;7.75;;;4.78;;
67902;SDS011;54708;43.612;1.568;2023-08-20T12:28:15;11.13;;;5.03;;
67902;SDS011;54708;43.612;1.568;2023-08-20T12:30:41;6.55;;;4.63;;
67902;SDS011;54708;43.612;1.568;2023-08-20T12:33:06;9.63;;;4.43;;
67902;SDS011;54708;43.612;1.568;2023-08-20T12:35:32;9.05;;;4.57;;
67902;SDS011;54708;43.612;1.568;2023-08-20T12:37:57;9.35;;;4.88;;
67902;SDS011;54708;43.612;1.568;2023-08-20T12:40:23;11.18;;;5.50;;
67902;SDS011;54708;43.612;1.568;2023-08-20T12:42:48;9.73;;;5.05;;
67902;SDS011;54708;43.612;1.568;2023-08-20T12:45:13;13.27;;;4.13;;
67902;SDS011;54708;43.612;1.568;2023-08-20T12:47:39;6.25;;;4.50;;
67902;SDS011;54708;43.612;1.568;2023-08-20T12:50:05;9.30;;;4.35;;
67902;SDS011;54708;43.612;1.568;2023-08-20T12:52:31;11.02;;;4.40;;
67902;SDS011;54708;43.612;1.568;2023-08-20T12:54:57;8.50;;;4.70;;
67902;SDS011;54708;43.612;1.568;2023-08-20T12:57:23;8.45;;;4.25;;
67902;SDS011;54708;43.612;1.568;2023-08-20T12:59:48;6.70;;;3.88;;
67902;SDS011;54708;43.612;1.568;2023-08-20T13:02:14;8.23;;;4.43;;
67902;SDS011;54708;43.612;1.568;2023-08-20T13:04:39;9.35;;;4.28;;
67902;SDS011;54708;43.612;1.568;2023-08-20T13:07:05;5.70;;;4.53;;
67902;SDS011;54708;43.612;1.568;2023-08-20T13:09:31;12.10;;;5.05;;
67902;SDS011;54708;43.612;1.568;2023-08-20T13:11:57;8.95;;;4.10;;
67902;SDS011;54708;43.612;1.568;2023-08-20T13:14:26;10.73;;;5.10;;
67902;SDS011;54708;43.612;1.568;2023-08-20T13:16:51;9.25;;;4.13;;
67902;SDS011;54708;43.612;1.568;2023-08-20T13:19:17;8.35;;;4.63;;
67902;SDS011;54708;43.612;1.568;2023-08-20T13:21:42;14.23;;;4.45;;
67902;SDS011;54708;43.612;1.568;2023-08-20T13:24:08;10.30;;;5.40;;
67902;SDS011;54708;43.612;1.568;2023-08-20T13:26:34;9.13;;;4.15;;
67902;SDS011;54708;43.612;1.568;2023-08-20T13:28:59;9.15;;;4.72;;
67902;SDS011;54708;43.612;1.568;2023-08-20T13:31:25;8.75;;;4.30;;
67902;SDS011;54708;43.612;1.568;2023-08-20T13:33:50;8.90;;;3.95;;
67902;SDS011;54708;43.612;1.568;2023-08-20T13:36:16;7.93;;;4.22;;
67902;SDS011;54708;43.612;1.568;2023-08-20T13:38:41;14.20;;;5.45;;
67902;SDS011;54708;43.612;1.568;2023-08-20T13:41:07;7.43;;;4.15;;
67902;SDS011;54708;43.612;1.568;2023-08-20T13:43:32;9.82;;;4.25;;
67902;SDS011;54708;43.612;1.568;2023-08-20T13:45:58;10.43;;;5.00;;
67902;SDS011;54708;43.612;1.568;2023-08-20T13:48:23;6.30;;;4.45;;
67902;SDS011;54708;43.612;1.568;2023-08-20T13:50:48;10.55;;;4.45;;
67902;SDS011;54708;43.612;1.568;2023-08-20T13:53:14;11.00;;;4.63;;
67902;SDS011;54708;43.612;1.568;2023-08-20T13:55:39;8.93;;;3.97;;
67902;SDS011;54708;43.612;1.568;2023-08-20T13:58:04;8.13;;;4.05;;
67902;SDS011;54708;43.612;1.568;2023-08-20T14:00:30;7.40;;;4.18;;
67902;SDS011;54708;43.612;1.568;2023-08-20T14:02:55;8.00;;;4.50;;
67902;SDS011;54708;43.612;1.568;2023-08-20T14:05:21;9.32;;;4.22;;
67902;SDS011;54708;43.612;1.568;2023-08-20T14:07:46;7.60;;;4.18;;
67902;SDS011;54708;43.612;1.568;2023-08-20T14:10:11;7.38;;;4.25;;
67902;SDS011;54708;43.612;1.568;2023-08-20T14:12:37;7.55;;;4.63;;
67902;SDS011;54708;43.612;1.568;2023-08-20T14:15:02;10.93;;;4.25;;
67902;SDS011;54708;43.612;1.568;2023-08-20T14:17:28;6.65;;;4.00;;
67902;SDS011;54708;43.612;1.568;2023-08-20T14:19:55;5.88;;;4.05;;
67902;SDS011;54708;43.612;1.568;2023-08-20T14:22:20;10.43;;;4.68;;
67902;SDS011;54708;43.612;1.568;2023-08-20T14:24:46;10.40;;;5.10;;
67902;SDS011;54708;43.612;1.568;2023-08-20T14:27:11;8.95;;;4.07;;
67902;SDS011;54708;43.612;1.568;2023-08-20T14:29:37;6.32;;;3.80;;
67902;SDS011;54708;43.612;1.568;2023-08-20T14:32:02;9.70;;;4.18;;
67902;SDS011;54708;43.612;1.568;2023-08-20T14:34:28;8.27;;;3.90;;
67902;SDS011;54708;43.612;1.568;2023-08-20T14:36:53;7.63;;;4.07;;
67902;SDS011;54708;43.612;1.568;2023-08-20T14:39:19;6.70;;;3.20;;
67902;SDS011;54708;43.612;1.568;2023-08-20T14:41:44;11.23;;;4.82;;
67902;SDS011;54708;43.612;1.568;2023-08-20T14:44:10;7.90;;;4.22;;
67902;SDS011;54708;43.612;1.568;2023-08-20T14:46:35;7.50;;;3.97;;